Time;durP1;ratioP1;P1;durP2;ratioP2;P2;SDS_P1;SDS_P2;PMS_P1;PMS_P2;Temp;Humidity;BMP_temperature;BMP_pressure;BME280_temperature;BME280_humidity;BME280_pressure;Samples;Min_cycle;Max_cycle;Signal;HPM_P1;HPM_P2
2022/04/19 00:00:23;;;;;;;6.20;4.75;;;7.80;68.60;;;;;;4918763;29;20294;-77
2022/04/19 00:02:48;;;;;;;8.90;4.70;;;7.70;73.70;;;;;;4918110;29;20055;-76
2022/04/19 00:05:14;;;;;;;9.65;4.70;;;7.80;72.60;;;;;;4918824;29;20166;-78
2022/04/19 00:07:41;;;;;;;6.47;3.95;;;7.90;72.80;;;;;;4906023;29;20088;-77
2022/04/19 00:10:07;;;;;;;7.28;4.70;;;8.00;69.60;;;;;;4921734;29;20090;-77
2022/04/19 00:12:33;;;;;;;6.43;4.90;;;8.00;70.20;;;;;;4916978;29;20039;-77
2022/04/19 00:14:58;;;;;;;7.80;5.03;;;7.90;71.00;;;;;;4908737;29;20130;-76
2022/04/19 00:17:24;;;;;;;5.47;4.35;;;7.90;72.20;;;;;;4919526;29;20388;-77
2022/04/19 00:19:49;;;;;;;8.15;4.90;;;7.90;70.90;;;;;;4905449;29;20036;-77
2022/04/19 00:22:17;;;;;;;7.00;4.70;;;7.80;71.20;;;;;;4890733;29;20524;-77
2022/04/19 00:24:43;;;;;;;6.28;5.03;;;7.60;69.90;;;;;;4908843;29;20122;-77
2022/04/19 00:27:08;;;;;;;8.77;4.90;;;7.60;73.50;;;;;;4907159;29;20115;-77
2022/04/19 00:29:34;;;;;;;12.73;5.38;;;7.30;75.20;;;;;;4919536;29;20577;-77
2022/04/19 00:31:59;;;;;;;6.40;5.30;;;7.30;75.80;;;;;;4907519;29;20123;-77
2022/04/19 00:34:25;;;;;;;6.78;4.47;;;7.20;82.80;;;;;;4917969;29;20123;-77
2022/04/19 00:36:50;;;;;;;6.55;4.43;;;6.90;87.20;;;;;;4901227;29;20107;-77
2022/04/19 00:39:16;;;;;;;8.77;5.00;;;6.90;90.90;;;;;;4913672;29;20087;-77
2022/04/19 00:41:41;;;;;;;9.60;4.70;;;6.90;92.70;;;;;;4913600;29;20497;-77
2022/04/19 00:44:07;;;;;;;5.95;4.60;;;6.80;92.30;;;;;;4893030;29;20512;-77
2022/04/19 00:46:33;;;;;;;7.47;4.78;;;6.70;95.40;;;;;;4934900;29;20085;-77
2022/04/19 00:48:59;;;;;;;7.22;5.05;;;6.70;96.80;;;;;;4891888;29;20063;-77
2022/04/19 00:51:24;;;;;;;6.20;4.50;;;6.70;98.00;;;;;;4913561;29;20741;-77
2022/04/19 00:53:50;;;;;;;7.30;4.85;;;6.70;97.80;;;;;;4934715;29;20479;-77
2022/04/19 00:56:16;;;;;;;8.13;4.90;;;6.90;98.00;;;;;;4916710;29;20039;-77
2022/04/19 00:58:41;;;;;;;7.05;4.38;;;6.90;94.90;;;;;;4919859;29;20524;-77
2022/04/19 01:01:07;;;;;;;8.02;4.78;;;6.80;97.80;;;;;;4886547;29;21915;-77
2022/04/19 01:03:32;;;;;;;6.72;5.15;;;6.50;99.90;;;;;;4907433;29;20123;-77
2022/04/19 01:05:59;;;;;;;7.75;5.07;;;6.40;99.90;;;;;;4901044;29;20110;-77
2022/04/19 01:08:25;;;;;;;10.23;5.20;;;6.30;99.30;;;;;;4921650;29;20024;-76
2022/04/19 01:13:16;;;;;;;8.60;5.97;;;6.30;97.90;;;;;;4918724;29;20651;-78
2022/04/19 01:13:36;;;;;;;6.68;4.70;;;6.30;99.90;;;;;;4903257;29;20499;-77
2022/04/19 01:16:01;;;;;;;5.60;4.18;;;6.40;99.00;;;;;;4917535;29;20131;-78
2022/04/19 01:18:27;;;;;;;6.78;4.82;;;6.50;95.50;;;;;;4904623;29;20039;-78
2022/04/19 01:20:53;;;;;;;6.00;4.32;;;6.60;94.20;;;;;;4917978;29;20039;-77
2022/04/19 01:23:19;;;;;;;11.68;5.53;;;6.60;93.90;;;;;;4906822;29;20436;-76
2022/04/19 01:25:45;;;;;;;7.85;5.15;;;6.50;96.10;;;;;;4907408;29;20027;-78
2022/04/19 01:28:10;;;;;;;8.60;4.75;;;6.30;99.90;;;;;;4892245;29;20024;-78
2022/04/19 01:30:36;;;;;;;12.10;4.90;;;6.20;99.90;;;;;;4903503;29;20036;-76
2022/04/19 01:33:02;;;;;;;7.90;4.60;;;6.20;99.90;;;;;;4902345;29;20036;-76
2022/04/19 01:35:27;;;;;;;8.00;4.80;;;6.20;99.40;;;;;;4915497;29;20497;-77
2022/04/19 01:37:53;;;;;;;8.25;5.28;;;6.00;99.90;;;;;;4906519;29;20123;-76
2022/04/19 01:40:19;;;;;;;13.13;5.22;;;5.80;99.90;;;;;;4901807;29;20032;-77
2022/04/19 01:42:54;;;;;;;7.97;4.25;;;5.80;99.90;;;;;;4919042;29;20075;-77
2022/04/19 01:45:24;;;;;;;10.45;4.95;;;5.70;99.90;;;;;;4899888;29;20448;-77
2022/04/19 01:47:50;;;;;;;8.50;4.70;;;5.60;99.90;;;;;;4905687;29;20047;-77
2022/04/19 01:50:16;;;;;;;6.88;4.82;;;5.40;99.90;;;;;;4899991;29;20936;-77
2022/04/19 01:52:42;;;;;;;8.52;5.25;;;5.30;99.90;;;;;;4916790;29;20475;-77
2022/04/19 01:55:12;;;;;;;10.40;5.82;;;5.40;99.90;;;;;;4905098;29;20086;-77
2022/04/19 01:57:37;;;;;;;7.85;5.57;;;5.60;99.90;;;;;;4933993;29;20036;-77
2022/04/19 02:00:04;;;;;;;7.80;5.40;;;5.60;99.90;;;;;;4894623;29;20039;-76
2022/04/19 02:02:29;;;;;;;10.65;5.35;;;5.70;99.90;;;;;;4919230;29;20519;-77
2022/04/19 02:04:55;;;;;;;8.73;5.45;;;5.80;99.90;;;;;;4925329;29;20131;-77
2022/04/19 02:07:21;;;;;;;9.65;5.10;;;5.90;99.00;;;;;;4903594;29;20055;-77
2022/04/19 02:09:47;;;;;;;11.15;5.90;;;5.80;99.90;;;;;;4921927;29;20119;-77
2022/04/19 02:12:13;;;;;;;10.05;5.22;;;5.70;99.90;;;;;;4908100;29;20395;-77
2022/04/19 02:14:41;;;;;;;8.73;5.80;;;5.50;99.90;;;;;;4906090;29;20059;-76
2022/04/19 02:17:09;;;;;;;7.80;5.72;;;5.40;99.90;;;;;;4910537;29;20494;-76
2022/04/19 02:19:35;;;;;;;8.35;5.50;;;5.40;99.90;;;;;;4895569;29;20552;-76
2022/04/19 02:22:01;;;;;;;10.88;5.63;;;5.50;99.90;;;;;;4909171;29;20514;-76
2022/04/19 02:24:27;;;;;;;8.50;5.55;;;5.50;99.90;;;;;;4909328;29;20032;-76
2022/04/19 02:26:53;;;;;;;11.68;5.05;;;5.60;99.90;;;;;;4911690;29;20928;-77
2022/04/19 02:29:19;;;;;;;7.65;5.57;;;5.60;99.90;;;;;;4926500;29;20036;-77
2022/04/19 02:31:45;;;;;;;8.23;5.05;;;5.50;99.90;;;;;;4905806;29;20043;-77
2022/04/19 02:34:11;;;;;;;12.40;5.60;;;5.50;99.90;;;;;;4891733;29;20096;-77
2022/04/19 02:36:36;;;;;;;8.75;4.97;;;5.30;99.90;;;;;;4904015;29;20306;-77
2022/04/19 02:39:02;;;;;;;6.82;5.63;;;5.20;99.90;;;;;;4919289;29;20151;-76
2022/04/19 02:41:28;;;;;;;8.27;5.38;;;5.10;99.90;;;;;;4919523;29;20115;-77
2022/04/19 02:43:53;;;;;;;9.50;5.13;;;5.10;99.90;;;;;;4905478;29;20039;-76
2022/04/19 02:46:19;;;;;;;7.20;4.88;;;5.10;99.90;;;;;;4921102;29;20034;-76
2022/04/19 02:48:45;;;;;;;9.02;5.57;;;5.20;99.90;;;;;;4922341;29;20425;-79
2022/04/19 02:51:10;;;;;;;8.07;5.68;;;5.10;99.90;;;;;;4907604;29;20075;-79
2022/04/19 02:53:36;;;;;;;8.93;5.65;;;5.10;99.90;;;;;;4919974;29;20115;-79
2022/04/19 02:56:03;;;;;;;12.00;5.18;;;5.10;99.90;;;;;;4905036;29;20043;-77
2022/04/19 02:58:29;;;;;;;9.70;5.70;;;4.90;99.90;;;;;;4906376;29;20079;-77
2022/04/19 03:00:55;;;;;;;7.53;4.90;;;4.60;99.90;;;;;;4931755;29;20032;-77
2022/04/19 03:03:21;;;;;;;8.93;5.13;;;4.50;99.90;;;;;;4935244;28;20052;-77
2022/04/19 03:05:48;;;;;;;12.75;5.07;;;4.50;99.90;;;;;;4908318;29;20032;-77
2022/04/19 03:08:13;;;;;;;10.57;5.57;;;4.50;99.90;;;;;;4903993;29;20052;-76
2022/04/19 03:10:39;;;;;;;9.40;5.38;;;4.50;99.90;;;;;;4913949;29;20088;-77
2022/04/19 03:13:04;;;;;;;8.43;5.13;;;4.50;99.90;;;;;;4919799;29;20039;-77
2022/04/19 03:15:34;;;;;;;7.55;5.40;;;4.50;99.90;;;;;;4903108;29;20035;-76
2022/04/19 03:18:00;;;;;;;10.95;5.30;;;4.50;99.90;;;;;;4907371;29;20495;-77
2022/04/19 03:20:25;;;;;;;8.32;4.82;;;4.70;99.90;;;;;;4919797;29;20040;-77
2022/04/19 03:28:19;;;;;;;11.27;5.50;;;4.40;99.90;;;;;;4904681;29;20060;-76
2022/04/19 03:30:45;;;;;;;7.22;5.25;;;4.20;99.90;;;;;;4921915;29;20048;-77
2022/04/19 03:33:10;;;;;;;10.82;5.55;;;4.00;99.90;;;;;;4893417;29;20067;-76
2022/04/19 03:35:36;;;;;;;10.80;5.60;;;4.00;99.90;;;;;;4904677;29;20107;-77
2022/04/19 03:38:07;;;;;;;8.85;5.85;;;3.90;99.90;;;;;;4924312;29;20036;-77
2022/04/19 03:40:32;;;;;;;8.70;5.40;;;3.90;99.90;;;;;;4907923;29;20047;-77
2022/04/19 03:42:58;;;;;;;12.75;5.72;;;3.90;99.90;;;;;;4922212;29;20028;-77
2022/04/19 03:45:23;;;;;;;9.18;5.25;;;3.90;99.90;;;;;;4908994;29;20112;-77
2022/04/19 03:47:49;;;;;;;8.27;5.13;;;4.00;99.90;;;;;;4936425;29;20377;-77
2022/04/19 03:50:14;;;;;;;8.13;5.60;;;4.10;99.90;;;;;;4904266;29;20040;-78
2022/04/19 03:52:40;;;;;;;8.38;5.15;;;4.00;99.90;;;;;;4905774;29;20133;-77
2022/04/19 03:55:06;;;;;;;7.28;5.05;;;4.10;99.90;;;;;;4893858;29;20032;-77
2022/04/19 03:57:31;;;;;;;7.88;5.00;;;4.00;99.90;;;;;;4916375;29;20028;-77
2022/04/19 03:59:57;;;;;;;9.52;5.40;;;4.00;99.90;;;;;;4908561;29;20040;-77
2022/04/19 04:02:22;;;;;;;22.50;5.90;;;3.90;99.90;;;;;;4908389;29;20127;-77
2022/04/19 04:04:48;;;;;;;8.82;5.80;;;3.70;99.90;;;;;;4919679;29;20540;-77
2022/04/19 04:07:13;;;;;;;8.27;6.18;;;3.70;99.90;;;;;;4920636;29;20554;-77
2022/04/19 04:09:39;;;;;;;7.72;5.50;;;3.70;99.90;;;;;;4890761;29;20139;-77
2022/04/19 04:12:09;;;;;;;10.90;5.93;;;3.80;99.90;;;;;;4890076;29;20027;-77
2022/04/19 04:14:35;;;;;;;9.80;5.40;;;3.80;99.90;;;;;;4913239;29;20036;-77
2022/04/19 04:17:00;;;;;;;10.10;6.22;;;3.80;99.90;;;;;;4904583;29;20543;-77
2022/04/19 04:19:26;;;;;;;11.70;5.80;;;3.80;99.90;;;;;;4919727;29;20082;-77
2022/04/19 04:21:51;;;;;;;9.20;5.60;;;3.80;99.90;;;;;;4906711;29;20032;-76
2022/04/19 04:24:17;;;;;;;11.63;6.22;;;3.80;99.90;;;;;;4908815;29;20036;-77
2022/04/19 04:26:42;;;;;;;8.75;6.10;;;4.00;99.90;;;;;;4904775;29;20063;-77
2022/04/19 04:29:08;;;;;;;11.93;6.97;;;3.80;99.90;;;;;;4901543;29;20029;-77
2022/04/19 04:31:33;;;;;;;9.70;6.00;;;3.70;99.90;;;;;;4913077;29;20036;-77
2022/04/19 04:33:59;;;;;;;11.90;6.20;;;3.80;99.90;;;;;;4890706;29;20040;-77
2022/04/19 04:36:25;;;;;;;8.77;6.07;;;3.80;99.90;;;;;;4899979;29;20040;-77
2022/04/19 04:38:50;;;;;;;10.88;6.13;;;3.90;99.90;;;;;;4902347;29;20115;-77
2022/04/19 04:41:16;;;;;;;10.88;5.82;;;3.80;99.90;;;;;;4900097;29;20060;-76
2022/04/19 04:43:42;;;;;;;9.48;6.13;;;3.60;99.90;;;;;;4906977;29;20664;-76
2022/04/19 04:51:36;;;;;;;12.27;6.63;;;3.60;99.90;;;;;;4901663;29;20038;-78
2022/04/19 04:54:02;;;;;;;11.07;6.40;;;3.60;99.90;;;;;;4918174;29;20040;-77
2022/04/19 04:56:27;;;;;;;10.70;6.47;;;3.60;99.90;;;;;;4904857;29;20418;-77
2022/04/19 04:58:53;;;;;;;12.25;6.90;;;3.50;99.90;;;;;;4934981;29;20055;-77
2022/04/19 05:01:18;;;;;;;11.05;6.55;;;3.50;99.90;;;;;;4904565;29;20523;-77
2022/04/19 05:03:44;;;;;;;9.43;5.93;;;3.70;99.90;;;;;;4903454;29;20147;-77
2022/04/19 05:06:09;;;;;;;12.32;6.32;;;3.90;99.90;;;;;;4890715;29;20051;-77
2022/04/19 05:08:35;;;;;;;10.05;6.38;;;4.00;99.90;;;;;;4904815;29;20036;-77
2022/04/19 05:11:00;;;;;;;11.63;5.85;;;4.10;99.90;;;;;;4916317;29;20035;-77
2022/04/19 05:13:26;;;;;;;9.82;6.50;;;4.10;99.90;;;;;;4907963;29;20025;-77
2022/04/19 05:15:51;;;;;;;8.55;5.80;;;4.20;99.90;;;;;;4919570;29;20694;-76
2022/04/19 05:18:17;;;;;;;7.90;6.00;;;4.20;99.90;;;;;;4902349;29;20020;-77
2022/04/19 05:20:42;;;;;;;12.18;6.15;;;4.30;99.90;;;;;;4915940;29;20047;-77
2022/04/19 05:23:08;;;;;;;7.95;6.28;;;4.50;99.90;;;;;;4901008;29;20027;-77
2022/04/19 05:25:34;;;;;;;10.88;6.72;;;4.60;99.90;;;;;;4901030;29;20059;-78
2022/04/19 05:27:59;;;;;;;11.05;6.88;;;4.70;99.90;;;;;;4892764;29;20289;-77
2022/04/19 05:30:25;;;;;;;12.50;6.85;;;4.80;99.90;;;;;;4911170;29;20391;-77
2022/04/19 05:32:50;;;;;;;9.52;6.40;;;4.80;99.90;;;;;;4921661;29;20480;-77
2022/04/19 05:35:16;;;;;;;9.70;6.13;;;4.90;99.90;;;;;;4922040;29;20043;-76
2022/04/19 05:37:41;;;;;;;10.50;6.07;;;5.00;99.90;;;;;;4931388;29;20441;-76
2022/04/19 05:40:07;;;;;;;14.23;6.70;;;5.10;99.90;;;;;;4907440;29;20036;-77
2022/04/19 05:42:33;;;;;;;7.80;5.28;;;5.20;99.90;;;;;;4919983;29;20035;-77
2022/04/19 05:44:58;;;;;;;12.45;7.10;;;5.30;99.90;;;;;;4918354;29;20409;-77
2022/04/19 05:47:24;;;;;;;18.05;10.18;;;5.50;99.90;;;;;;4919665;29;20492;-78
2022/04/19 05:49:51;;;;;;;8.40;5.53;;;5.50;99.90;;;;;;4891555;29;20036;-78
2022/04/19 05:52:16;;;;;;;10.00;6.35;;;5.60;99.90;;;;;;4922736;29;20062;-77
2022/04/19 05:54:42;;;;;;;10.60;6.35;;;5.70;99.90;;;;;;4921699;29;20040;-78
2022/04/19 05:57:10;;;;;;;9.32;5.75;;;5.80;99.90;;;;;;4910022;29;20473;-78
2022/04/19 05:59:35;;;;;;;10.43;6.50;;;6.00;99.90;;;;;;4920166;29;20035;-77
2022/04/19 06:04:54;;;;;;;9.98;6.93;;;6.20;99.90;;;;;;4919032;29;22443;-77
2022/04/19 06:07:20;;;;;;;11.55;6.43;;;6.30;99.90;;;;;;4892107;29;20040;-78
2022/04/19 06:09:45;;;;;;;11.43;5.97;;;6.50;99.90;;;;;;4934518;29;20083;-77
2022/04/19 06:12:11;;;;;;;9.95;7.13;;;6.70;99.90;;;;;;4894942;29;20028;-77
2022/04/19 06:14:37;;;;;;;9.75;6.28;;;6.80;99.90;;;;;;4901848;29;20111;-77
2022/04/19 06:17:03;;;;;;;10.82;7.22;;;7.00;99.90;;;;;;4892647;29;20040;-77
2022/04/19 06:19:28;;;;;;;9.25;6.68;;;7.10;99.90;;;;;;4920747;29;20055;-78
2022/04/19 06:21:55;;;;;;;11.77;7.28;;;7.20;99.90;;;;;;4917365;29;20036;-78
2022/04/19 06:24:20;;;;;;;11.40;8.25;;;7.40;99.90;;;;;;4891270;29;20060;-79
2022/04/19 06:26:46;;;;;;;12.40;8.35;;;7.50;99.90;;;;;;4907843;29;20563;-79
2022/04/19 06:29:12;;;;;;;8.80;6.85;;;7.70;99.90;;;;;;4890206;29;20059;-77
2022/04/19 06:31:40;;;;;;;10.57;5.53;;;8.00;99.90;;;;;;4921283;29;20396;-78
2022/04/19 06:34:06;;;;;;;13.65;7.78;;;8.10;99.90;;;;;;4895745;29;20042;-78
2022/04/19 06:36:31;;;;;;;15.60;7.40;;;8.30;99.90;;;;;;4922589;29;20020;-77
2022/04/19 06:38:57;;;;;;;11.75;7.57;;;8.40;99.90;;;;;;4920748;29;20043;-78
2022/04/19 06:41:23;;;;;;;12.75;7.80;;;8.50;99.90;;;;;;4905776;29;20028;-78
2022/04/19 06:43:48;;;;;;;12.65;7.60;;;8.60;99.90;;;;;;4918489;29;20036;-77
2022/04/19 06:46:15;;;;;;;11.20;7.20;;;8.80;99.90;;;;;;4914673;29;20222;-77
2022/04/19 06:48:41;;;;;;;11.80;7.68;;;8.90;99.90;;;;;;4920826;29;20040;-79
2022/04/19 06:51:09;;;;;;;10.95;6.57;;;9.00;99.90;;;;;;4919882;29;20038;-78
2022/04/19 06:53:35;;;;;;;11.02;6.28;;;9.30;99.90;;;;;;4918809;29;20530;-78
2022/04/19 06:56:00;;;;;;;8.23;4.35;;;9.40;99.90;;;;;;4890389;29;20480;-77
2022/04/19 06:58:27;;;;;;;10.63;7.38;;;9.50;99.90;;;;;;4919226;29;20110;-77
2022/04/19 07:00:53;;;;;;;19.60;8.85;;;9.70;99.90;;;;;;4922608;29;20127;-78
2022/04/19 07:03:18;;;;;;;14.52;8.95;;;9.90;99.90;;;;;;4917249;29;20142;-78
2022/04/19 07:05:44;;;;;;;15.05;9.32;;;10.00;99.90;;;;;;4924213;29;20074;-78
2022/04/19 07:08:10;;;;;;;14.57;7.65;;;10.10;99.90;;;;;;4919373;29;20138;-78
2022/04/19 07:10:36;;;;;;;13.77;7.53;;;10.30;99.90;;;;;;4894444;29;20042;-78
2022/04/19 07:13:01;;;;;;;19.70;8.95;;;10.60;99.90;;;;;;4890594;29;20044;-78
2022/04/19 07:15:28;;;;;;;16.48;8.70;;;10.90;99.90;;;;;;4918528;29;20123;-77
2022/04/19 07:17:53;;;;;;;15.32;8.90;;;10.90;99.90;;;;;;4917197;29;20083;-78
2022/04/19 07:28:35;;;;;;;10.13;7.05;;;11.30;99.90;;;;;;4902231;29;20083;-79
2022/04/19 07:31:01;;;;;;;13.90;8.23;;;11.50;99.90;;;;;;4922395;29;20047;-78
2022/04/19 07:33:38;;;;;;;15.50;8.10;;;11.70;99.60;;;;;;4922126;29;20483;-79
2022/04/19 07:36:04;;;;;;;13.05;8.15;;;11.90;99.30;;;;;;4893772;29;20495;-79
2022/04/19 07:38:30;;;;;;;10.95;6.65;;;12.10;95.90;;;;;;4921786;29;20040;-79
2022/04/19 07:40:55;;;;;;;16.77;8.23;;;12.40;93.70;;;;;;4916279;29;20035;-78
2022/04/19 07:43:22;;;;;;;14.73;7.75;;;12.40;98.30;;;;;;4904055;29;20499;-79
2022/04/19 07:45:47;;;;;;;16.58;7.38;;;12.30;98.00;;;;;;4918810;29;20531;-78
2022/04/19 07:48:13;;;;;;;15.07;7.93;;;12.30;97.20;;;;;;4918290;29;20027;-78
2022/04/19 07:50:39;;;;;;;14.70;8.30;;;12.40;97.00;;;;;;4886574;29;20087;-78
2022/04/19 07:53:05;;;;;;;17.15;7.55;;;12.50;96.60;;;;;;4892988;29;20050;-78
2022/04/19 07:55:30;;;;;;;12.20;7.68;;;12.80;93.80;;;;;;4916715;29;20496;-79
2022/04/19 07:57:56;;;;;;;13.88;7.07;;;12.90;92.20;;;;;;4909079;29;20055;-78
2022/04/19 08:00:22;;;;;;;13.77;8.13;;;13.00;93.00;;;;;;4921610;29;20398;-77
2022/04/19 08:02:47;;;;;;;14.55;8.13;;;13.00;93.40;;;;;;4934515;29;20024;-78
2022/04/19 08:05:13;;;;;;;13.55;8.43;;;13.10;91.90;;;;;;4906971;29;20046;-78
2022/04/19 08:07:39;;;;;;;13.18;7.25;;;13.30;87.60;;;;;;4922112;29;20563;-80
2022/04/19 08:10:05;;;;;;;12.73;8.13;;;13.60;83.80;;;;;;4905321;29;20040;-79
2022/04/19 08:12:33;;;;;;;14.93;7.55;;;13.60;87.90;;;;;;4920411;29;20518;-78
2022/04/19 08:14:59;;;;;;;14.68;8.50;;;13.70;90.30;;;;;;4919960;29;20038;-78
2022/04/19 08:17:24;;;;;;;11.48;8.25;;;13.80;91.10;;;;;;4915896;29;20407;-79
2022/04/19 08:19:50;;;;;;;10.82;7.47;;;13.90;86.10;;;;;;4909685;29;20036;-79
2022/04/19 08:22:16;;;;;;;11.82;6.90;;;14.10;88.10;;;;;;4907137;29;20028;-80
2022/04/19 08:24:42;;;;;;;10.40;6.82;;;14.20;81.00;;;;;;4904000;29;20039;-79
2022/04/19 08:27:07;;;;;;;15.85;8.00;;;14.30;85.80;;;;;;4903899;29;20036;-80
2022/04/19 08:29:33;;;;;;;14.57;6.78;;;14.40;80.70;;;;;;4907385;29;20083;-79
2022/04/19 08:31:59;;;;;;;11.27;7.00;;;14.60;78.40;;;;;;4916914;29;20039;-79
2022/04/19 08:34:24;;;;;;;11.70;8.20;;;14.60;80.50;;;;;;4917933;29;20074;-79
2022/04/19 08:36:50;;;;;;;11.88;6.63;;;14.70;76.20;;;;;;4904715;29;20036;-80
2022/04/19 08:39:17;;;;;;;12.07;6.32;;;14.70;74.90;;;;;;4891247;29;20392;-80
2022/04/19 08:41:43;;;;;;;10.55;6.43;;;14.90;73.30;;;;;;4908474;29;20024;-79
2022/04/19 08:44:08;;;;;;;8.77;6.28;;;15.00;72.70;;;;;;4921152;29;20091;-79
2022/04/19 08:46:39;;;;;;;8.98;6.18;;;15.10;69.00;;;;;;4921541;29;20484;-80
2022/04/19 08:49:05;;;;;;;8.35;6.25;;;15.20;72.50;;;;;;4909899;29;20094;-79
2022/04/19 08:51:32;;;;;;;9.30;6.18;;;15.30;70.60;;;;;;4905927;29;20036;-80
2022/04/19 08:59:29;;;;;;;9.02;6.25;;;15.50;66.20;;;;;;4906484;29;20039;-80
2022/04/19 09:01:55;;;;;;;10.80;5.93;;;15.60;66.30;;;;;;4903064;29;20503;-80
2022/04/19 09:04:24;;;;;;;6.97;5.32;;;15.70;65.70;;;;;;4910674;29;20115;-79
2022/04/19 09:06:51;;;;;;;8.25;5.22;;;15.90;65.80;;;;;;4938155;29;20025;-80
2022/04/19 09:09:17;;;;;;;7.65;5.90;;;15.90;64.80;;;;;;4923467;29;20024;-80
2022/04/19 09:11:42;;;;;;;9.23;5.22;;;16.00;64.60;;;;;;4924959;29;20036;-81
2022/04/19 09:14:08;;;;;;;9.32;5.55;;;16.10;65.20;;;;;;4899840;29;20312;-81
2022/04/19 09:16:34;;;;;;;10.10;4.93;;;16.20;65.70;;;;;;4922249;29;20030;-81
2022/04/19 09:19:00;;;;;;;8.10;5.07;;;16.30;65.70;;;;;;4928173;29;20529;-80
2022/04/19 09:21:38;;;;;;;9.98;4.47;;;16.50;65.40;;;;;;4906545;29;20036;-81
2022/04/19 09:24:34;;;;;;;4.30;3.90;;;16.60;63.90;;;;;;4894702;29;20054;-81
2022/04/19 09:26:59;;;;;;;7.50;4.43;;;16.70;63.50;;;;;;4925357;29;20127;-80
2022/04/19 09:29:25;;;;;;;6.15;4.13;;;16.70;63.10;;;;;;4906269;29;20047;-81
2022/04/19 09:32:02;;;;;;;5.05;4.05;;;16.80;61.80;;;;;;4910148;29;20360;-80
2022/04/19 09:34:33;;;;;;;6.03;4.50;;;16.90;61.90;;;;;;4896499;29;20106;-81
2022/04/19 09:37:12;;;;;;;5.05;3.83;;;17.00;58.90;;;;;;4908067;29;20058;-81
2022/04/19 09:39:39;;;;;;;4.30;3.08;;;17.00;59.80;;;;;;4912436;29;20523;-80
2022/04/19 09:42:09;;;;;;;4.25;3.17;;;17.30;59.30;;;;;;4909598;29;20510;-81
2022/04/19 09:44:44;;;;;;;4.40;3.70;;;17.50;59.70;;;;;;4895320;28;20038;-81
2022/04/19 09:47:13;;;;;;;3.97;3.47;;;17.50;58.50;;;;;;4891693;29;20414;-81
2022/04/19 09:49:52;;;;;;;4.38;3.40;;;17.70;57.90;;;;;;4887981;29;20040;-81
2022/04/19 09:52:20;;;;;;;7.57;3.50;;;17.80;59.50;;;;;;4891384;29;20516;-81
2022/04/19 09:54:59;;;;;;;5.30;3.65;;;17.80;58.70;;;;;;4929903;28;20055;-81
2022/04/19 09:57:25;;;;;;;4.85;3.85;;;18.00;58.70;;;;;;4907341;29;20607;-81
2022/04/19 09:59:53;;;;;;;6.30;3.72;;;17.90;57.40;;;;;;4921593;29;20052;-81
2022/04/19 10:08:19;;;;;;;6.20;4.25;;;18.10;57.50;;;;;;4920677;29;20043;-81
2022/04/19 10:10:48;;;;;;;4.55;3.85;;;18.10;56.40;;;;;;4892637;29;20433;-82
2022/04/19 10:13:13;;;;;;;4.68;3.13;;;18.20;57.10;;;;;;4891661;29;20119;-81
2022/04/19 10:15:43;;;;;;;5.88;3.70;;;18.20;56.90;;;;;;4895180;29;20119;-81
2022/04/19 10:18:08;;;;;;;10.57;4.22;;;18.50;57.70;;;;;;4910635;29;20036;-81
2022/04/19 10:20:54;;;;;;;7.90;4.75;;;18.40;55.40;;;;;;4901806;29;20042;-81
2022/04/19 10:23:47;;;;;;;7.22;4.07;;;18.40;54.90;;;;;;4901854;29;20028;-81
2022/04/19 10:26:24;;;;;;;5.90;3.60;;;18.60;57.10;;;;;;4894622;29;20115;-82
2022/04/19 10:28:53;;;;;;;4.75;3.58;;;18.60;55.80;;;;;;4923134;29;20032;-82
2022/04/19 10:31:35;;;;;;;7.32;4.88;;;18.80;55.90;;;;;;4895370;29;20040;-82
2022/04/19 10:34:06;;;;;;;8.02;4.82;;;18.90;56.20;;;;;;4920061;29;20052;-82
2022/04/19 10:36:39;;;;;;;7.45;4.25;;;18.90;54.90;;;;;;4893034;29;20061;-82
2022/04/19 10:39:14;;;;;;;7.70;4.60;;;18.90;54.70;;;;;;4909079;29;20044;-82
2022/04/19 10:41:54;;;;;;;7.28;4.53;;;19.00;53.20;;;;;;4926422;29;20388;-82
2022/04/19 10:44:38;;;;;;;6.40;3.92;;;19.10;54.20;;;;;;4915830;29;20032;-83
2022/04/19 10:47:28;;;;;;;5.15;4.22;;;19.40;55.10;;;;;;4923529;29;20054;-82
2022/04/19 10:50:11;;;;;;;7.45;4.63;;;19.50;53.80;;;;;;4866390;29;20051;-82
2022/04/19 10:52:37;;;;;;;7.47;4.28;;;19.40;51.80;;;;;;4882291;29;20440;-83
2022/04/19 10:55:11;;;;;;;6.03;4.22;;;19.50;52.90;;;;;;4875817;29;20136;-83
2022/04/19 11:01:35;;;;;;;6.72;4.35;;;19.50;51.50;;;;;;4852025;29;20049;-84
2022/04/19 11:07:46;;;;;;;7.45;4.70;;;19.40;50.20;;;;;;4876912;29;20036;-83
2022/04/19 11:14:34;;;;;;;9.15;5.10;;;20.50;53.30;;;;;;4856778;29;20623;-84
2022/04/19 11:17:47;;;;;;;8.88;4.82;;;20.30;52.70;;;;;;4868043;29;20068;-84
2022/04/19 11:21:01;;;;;;;8.38;6.30;;;20.30;51.50;;;;;;4876052;29;20036;-85
2022/04/19 11:23:43;;;;;;;7.63;5.22;;;20.20;51.70;;;;;;4895589;29;20526;-84
2022/04/19 11:26:54;;;;;;;;;;;;;;;;;;;;;
2022/04/19 11:30:26;;;;;;;11.55;6.10;;;20.50;51.80;;;;;;4875964;29;20681;-85
2022/04/19 11:33:07;;;;;;;9.55;6.30;;;20.30;50.40;;;;;;4873309;29;20127;-85
2022/04/19 11:36:16;;;;;;;12.23;7.07;;;20.30;49.90;;;;;;4891797;29;20143;-85
2022/04/19 11:38:47;;;;;;;9.57;6.32;;;20.50;51.50;;;;;;4887490;29;20036;-85
2022/04/19 11:46:51;;;;;;;9.70;5.82;;;20.70;49.90;;;;;;4912327;29;20056;-86
2022/04/19 11:49:25;;;;;;;8.85;4.75;;;20.60;49.50;;;;;;4881105;28;20039;-86
2022/04/19 11:51:52;;;;;;;10.68;5.57;;;20.90;50.90;;;;;;4894363;29;20468;-86
2022/04/19 11:54:24;;;;;;;8.13;6.07;;;20.80;47.70;;;;;;4883153;29;20091;-86
2022/04/19 11:56:53;;;;;;;9.90;5.63;;;20.80;48.40;;;;;;4896382;29;20050;-87
2022/04/19 11:59:34;;;;;;;12.32;6.28;;;20.80;49.30;;;;;;4865666;29;20077;-86
2022/04/19 12:02:08;;;;;;;7.00;4.80;;;21.20;50.20;;;;;;4894096;29;20103;-87
2022/04/19 12:04:36;;;;;;;5.63;3.60;;;21.90;50.50;;;;;;4883979;29;20107;-85
2022/04/19 12:07:05;;;;;;;8.93;5.60;;;22.10;50.30;;;;;;4909570;29;20047;-88
2022/04/19 12:09:31;;;;;;;9.57;5.18;;;22.00;48.70;;;;;;4891800;29;20043;-86
2022/04/19 12:11:57;;;;;;;10.95;5.18;;;21.50;47.80;;;;;;4909458;29;20039;-87
2022/04/19 12:14:32;;;;;;;6.65;4.30;;;21.90;49.30;;;;;;4928803;29;20039;-86
2022/04/19 12:17:06;;;;;;;8.50;4.97;;;21.80;49.80;;;;;;4908430;29;20150;-88
2022/04/19 12:19:34;;;;;;;9.48;5.90;;;21.80;48.80;;;;;;4901236;29;20032;-88
2022/04/19 12:21:59;;;;;;;9.98;6.15;;;21.90;49.80;;;;;;4922282;29;20036;-89
2022/04/19 12:24:26;;;;;;;8.02;5.93;;;22.00;47.20;;;;;;4910975;29;20031;-87
2022/04/19 12:27:06;;;;;;;8.98;6.13;;;21.70;47.50;;;;;;4911053;29;20028;-88
2022/04/19 12:29:35;;;;;;;8.02;6.03;;;21.80;47.60;;;;;;4913795;29;20066;-88
2022/04/19 12:32:02;;;;;;;8.07;5.30;;;22.00;48.90;;;;;;4901550;29;20046;-88
2022/04/19 12:34:39;;;;;;;7.45;4.85;;;22.10;50.10;;;;;;4896140;29;20036;-88
2022/04/19 12:37:08;;;;;;;9.88;6.03;;;22.10;48.90;;;;;;4924487;29;20488;-87
2022/04/19 12:39:34;;;;;;;7.32;4.88;;;21.90;46.50;;;;;;4920880;29;20512;-89
2022/04/19 12:42:07;;;;;;;6.93;5.30;;;22.00;48.60;;;;;;4910573;29;20043;-89
2022/04/19 12:44:35;;;;;;;9.77;6.38;;;22.00;46.80;;;;;;4908242;29;20402;-89
2022/04/19 12:47:02;;;;;;;7.68;5.95;;;22.00;47.50;;;;;;4917781;29;20040;-88
2022/04/19 12:49:29;;;;;;;7.05;5.38;;;22.20;46.90;;;;;;4907318;29;20032;-88
2022/04/19 12:52:05;;;;;;;6.32;4.70;;;22.10;46.80;;;;;;4932304;29;20028;-89
2022/04/19 12:54:32;;;;;;;;;;;22.10;46.10;;;;;;4917839;29;20036;-87
2022/04/19 12:57:00;;;;;;;9.93;5.95;;;22.30;47.30;;;;;;4918144;29;19914;-89
2022/04/19 12:59:29;;;;;;;9.48;4.57;;;22.30;48.00;;;;;;4903094;29;20096;-88
2022/04/19 13:01:55;;;;;;;5.93;4.10;;;22.30;46.00;;;;;;4906464;29;20373;-87
2022/04/19 13:04:21;;;;;;;10.20;5.43;;;22.50;47.10;;;;;;4902658;29;20452;-88
2022/04/19 13:12:22;;;;;;;9.38;5.65;;;22.50;46.30;;;;;;4930387;29;20087;-87
2022/04/19 13:14:52;;;;;;;6.10;5.22;;;22.50;47.20;;;;;;4921077;29;20032;-86
2022/04/19 13:17:17;;;;;;;5.07;3.92;;;22.30;46.00;;;;;;4893240;29;20035;-86
2022/04/19 13:19:43;;;;;;;7.00;5.07;;;22.30;46.80;;;;;;4921410;29;20040;-86
2022/04/19 13:22:09;;;;;;;8.00;6.38;;;22.40;46.50;;;;;;4907764;29;20127;-86
2022/04/19 13:24:36;;;;;;;7.28;5.55;;;22.30;45.10;;;;;;4908492;29;20031;-86
2022/04/19 13:27:03;;;;;;;5.95;5.00;;;22.30;45.20;;;;;;4907247;29;20052;-85
2022/04/19 13:29:29;;;;;;;6.32;5.65;;;22.50;46.70;;;;;;4922555;29;20058;-85
2022/04/19 13:31:55;;;;;;;5.90;5.30;;;22.50;46.00;;;;;;4917204;29;20380;-85
2022/04/19 13:34:21;;;;;;;6.45;5.07;;;22.50;46.40;;;;;;4918054;29;20039;-84
2022/04/19 13:36:47;;;;;;;8.27;5.10;;;22.60;46.10;;;;;;4919493;29;20056;-85
2022/04/19 13:39:12;;;;;;;10.93;5.05;;;22.70;46.90;;;;;;4906180;29;20471;-85
2022/04/19 13:41:41;;;;;;;6.75;4.82;;;22.70;45.50;;;;;;4886404;29;20078;-85
2022/04/19 13:44:10;;;;;;;6.60;4.45;;;22.70;46.70;;;;;;4895001;29;20032;-84
2022/04/19 13:46:37;;;;;;;7.05;4.50;;;22.80;46.70;;;;;;4918822;29;20065;-83
2022/04/19 13:49:03;;;;;;;6.60;4.85;;;23.20;46.30;;;;;;4894803;29;20115;-84
2022/04/19 13:51:29;;;;;;;7.35;4.95;;;23.40;46.20;;;;;;4922859;29;20040;-85